Time;durP1;ratioP1;P1;durP2;ratioP2;P2;SDS_P1;SDS_P2;PMS_P1;PMS_P2;Temp;Humidity;BMP_temperature;BMP_pressure;BME280_temperature;BME280_humidity;BME280_pressure;Samples;Min_cycle;Max_cycle;Signal;HPM_P1;HPM_P2
2022/02/21 00:01:52;;;;;;;;;;;;;;;;;;5089783;28;20228;-73
2022/02/21 00:04:17;;;;;;;;;;;;;;;;;;5089662;28;19928;-73
2022/02/21 00:06:43;;;;;;;;;;;;;;;;;;5082046;28;19925;-72
2022/02/21 00:12:00;;;;;;;;;;;;;;;;;;5085997;28;20311;-74
2022/02/21 00:14:25;;;;;;;;;;;;;;;;;;5089628;28;19920;-73
2022/02/21 00:16:52;;;;;;;;;;;;;;;;;;5088061;28;19955;-73
2022/02/21 00:19:17;;;;;;;;;;;;;;;;;;5089949;28;19969;-72
2022/02/21 00:21:42;;;;;;;;;;;;;;;;;;5088675;28;19916;-72
2022/02/21 00:24:08;;;;;;;;;;;;;;;;;;5088166;28;19924;-73
2022/02/21 00:26:33;;;;;;;;;;;;;;;;;;5090015;28;19916;-73
2022/02/21 00:29:00;;;;;;;;;;;;;;;;;;5089405;28;19924;-73
2022/02/21 00:31:25;;;;;;;;;;;;;;;;;;5089407;28;19923;-73
2022/02/21 00:33:50;;;;;;;;;;;;;;;;;;5087671;28;19920;-72
2022/02/21 00:36:16;;;;;;;;;;;;;;;;;;5081364;28;20019;-72
2022/02/21 00:38:41;;;;;;;;;;;;;;;;;;5087575;28;20287;-73
2022/02/21 00:41:06;;;;;;;;;;;;;;;;;;5089083;28;19931;-73
2022/02/21 00:43:32;;;;;;;;;;;;;;;;;;5087894;28;19959;-73
2022/02/21 00:45:57;;;;;;;;;;;;;;;;;;5081403;28;19921;-72
2022/02/21 00:48:23;;;;;;;;;;;;;;;;;;5081490;28;19919;-72
2022/02/21 00:50:49;;;;;;;;;;;;;;;;;;5089389;28;19916;-73
2022/02/21 00:53:15;;;;;;;;;;;;;;;;;;5081340;28;19935;-74
2022/02/21 00:55:40;;;;;;;;;;;;;;;;;;5081176;28;19923;-73
2022/02/21 00:58:06;;;;;;;;;;;;;;;;;;5080758;28;20446;-73
2022/02/21 01:00:32;;;;;;;;;;;;;;;;;;5089256;28;20015;-73
2022/02/21 01:02:57;;;;;;;;;;;;;;;;;;5076777;28;19920;-72
2022/02/21 01:05:23;;;;;;;;;;;;;;;;;;5081241;28;19920;-73
2022/02/21 01:07:48;;;;;;;;;;;;;;;;;;5083427;28;19912;-73
2022/02/21 01:10:14;;;;;;;;;;;;;;;;;;5092949;28;20279;-72
2022/02/21 01:12:39;;;;;;;;;;;;;;;;;;5093394;28;20413;-73
2022/02/21 01:15:05;;;;;;;;;;;;;;;;;;5079742;28;19922;-73
2022/02/21 01:17:31;;;;;;;;;;;;;;;;;;5091391;28;19912;-72
2022/02/21 01:19:57;;;;;;;;;;;;;;;;;;5092978;28;19916;-72
2022/02/21 01:22:23;;;;;;;;;;;;;;;;;;5080218;28;19948;-73
2022/02/21 01:24:48;;;;;;;;;;;;;;;;;;5084606;28;19967;-74
2022/02/21 01:27:14;;;;;;;;;;;;;;;;;;5090488;28;19923;-73
2022/02/21 01:29:40;;;;;;;;;;;;;;;;;;5080431;28;19946;-73
2022/02/21 01:32:06;;;;;;;;;;;;;;;;;;5082018;28;19954;-73
2022/02/21 01:34:31;;;;;;;;;;;;;;;;;;5084955;28;20235;-72
2022/02/21 01:36:56;;;;;;;;;;;;;;;;;;5080572;28;20394;-73
2022/02/21 01:39:22;;;;;;;;;;;;;;;;;;5089596;28;19920;-73
2022/02/21 01:41:47;;;;;;;;;;;;;;;;;;5091687;28;19927;-73
2022/02/21 01:44:13;;;;;;;;;;;;;;;;;;5084357;28;19930;-73
2022/02/21 01:46:39;;;;;;;;;;;;;;;;;;5084362;28;19920;-73
2022/02/21 01:49:04;;;;;;;;;;;;;;;;;;5092113;28;19942;-73
2022/02/21 01:51:30;;;;;;;;;;;;;;;;;;5092427;28;20395;-73
2022/02/21 01:53:56;;;;;;;;;;;;;;;;;;5092270;28;19916;-73
2022/02/21 01:56:23;;;;;;;;;;;;;;;;;;5092143;28;19916;-72
2022/02/21 01:58:48;;;;;;;;;;;;;;;;;;5083320;28;19932;-73
2022/02/21 02:01:14;;;;;;;;;;;;;;;;;;5083742;28;20390;-73
2022/02/21 02:03:39;;;;;;;;;;;;;;;;;;5091963;28;19920;-73
2022/02/21 02:06:06;;;;;;;;;;;;;;;;;;5091382;28;19920;-73
2022/02/21 02:08:32;;;;;;;;;;;;;;;;;;5083512;28;19916;-73
2022/02/21 02:10:58;;;;;;;;;;;;;;;;;;5091710;28;20056;-73
2022/02/21 02:13:23;;;;;;;;;;;;;;;;;;5100210;28;20432;-73
2022/02/21 02:15:53;;;;;;;;;;;;;;;;;;5083768;28;19927;-73
2022/02/21 02:18:19;;;;;;;;;;;;;;;;;;5091083;28;19915;-73
2022/02/21 02:20:44;;;;;;;;;;;;;;;;;;5091745;28;20411;-72
2022/02/21 02:23:09;;;;;;;;;;;;;;;;;;5091437;28;20610;-72
2022/02/21 02:25:35;;;;;;;;;;;;;;;;;;5091807;28;20286;-73
2022/02/21 02:28:00;;;;;;;;;;;;;;;;;;5091537;28;19916;-74
2022/02/21 02:30:26;;;;;;;;;;;;;;;;;;5091873;28;19920;-73
2022/02/21 02:32:54;;;;;;;;;;;;;;;;;;5100323;28;20363;-73
2022/02/21 02:35:20;;;;;;;;;;;;;;;;;;5090120;28;20241;-74
2022/02/21 02:37:45;;;;;;;;;;;;;;;;;;5091173;28;19960;-73
2022/02/21 02:40:11;;;;;;;;;;;;;;;;;;5082596;28;20012;-73
2022/02/21 02:42:36;;;;;;;;;;;;;;;;;;5086684;28;19920;-72
2022/02/21 02:45:02;;;;;;;;;;;;;;;;;;5082403;28;19998;-73
2022/02/21 02:47:27;;;;;;;;;;;;;;;;;;5083010;28;19920;-73
2022/02/21 02:49:52;;;;;;;;;;;;;;;;;;5082797;28;20464;-72
2022/02/21 02:52:18;;;;;;;;;;;;;;;;;;5082889;28;19923;-73
2022/02/21 02:54:43;;;;;;;;;;;;;;;;;;5091439;28;19962;-73
2022/02/21 02:57:08;;;;;;;;;;;;;;;;;;5084305;28;19916;-73
2022/02/21 02:59:34;;;;;;;;;;;;;;;;;;5091122;28;20399;-73
2022/02/21 03:02:00;;;;;;;;;;;;;;;;;;5090904;28;19961;-73
2022/02/21 03:04:26;;;;;;;;;;;;;;;;;;5091313;28;19982;-73
2022/02/21 03:06:51;;;;;;;;;;;;;;;;;;5090470;28;19916;-72
2022/02/21 03:09:17;;;;;;;;;;;;;;;;;;5076681;28;19916;-73
2022/02/21 03:11:42;;;;;;;;;;;;;;;;;;5086579;28;19916;-73
2022/02/21 03:14:07;;;;;;;;;;;;;;;;;;5090535;28;20441;-74
2022/02/21 03:16:33;;;;;;;;;;;;;;;;;;5090663;28;19941;-73
2022/02/21 03:18:58;;;;;;;;;;;;;;;;;;5077080;28;19916;-73
2022/02/21 03:21:24;;;;;;;;;;;;;;;;;;5075767;28;20347;-73
2022/02/21 03:23:49;;;;;;;;;;;;;;;;;;5088917;28;20307;-73
2022/02/21 03:26:15;;;;;;;;;;;;;;;;;;5097110;28;19964;-73
2022/02/21 03:28:40;;;;;;;;;;;;;;;;;;5089399;28;20410;-72
2022/02/21 03:31:05;;;;;;;;;;;;;;;;;;5089495;28;20394;-73
2022/02/21 03:33:31;;;;;;;;;;;;;;;;;;5090367;28;20002;-73
2022/02/21 03:35:56;;;;;;;;;;;;;;;;;;5088761;28;19981;-73
2022/02/21 03:38:22;;;;;;;;;;;;;;;;;;5090247;28;19916;-73
2022/02/21 03:40:48;;;;;;;;;;;;;;;;;;5090283;28;21010;-73
2022/02/21 03:43:14;;;;;;;;;;;;;;;;;;5080440;28;20390;-73
2022/02/21 03:45:39;;;;;;;;;;;;;;;;;;5094879;28;19917;-74
2022/02/21 03:48:05;;;;;;;;;;;;;;;;;;5078858;28;19930;-73
2022/02/21 03:50:30;;;;;;;;;;;;;;;;;;5078740;28;19920;-73
2022/02/21 03:52:56;;;;;;;;;;;;;;;;;;5087850;28;19923;-73
2022/02/21 03:55:21;;;;;;;;;;;;;;;;;;5090231;28;20018;-73
2022/02/21 03:57:47;;;;;;;;;;;;;;;;;;5078098;28;19924;-73
2022/02/21 04:00:13;;;;;;;;;;;;;;;;;;5081516;28;19923;-74
2022/02/21 04:02:39;;;;;;;;;;;;;;;;;;5081809;28;20319;-73
2022/02/21 04:05:05;;;;;;;;;;;;;;;;;;5089262;28;19924;-73
2022/02/21 04:07:31;;;;;;;;;;;;;;;;;;5081549;28;19916;-73
2022/02/21 04:09:56;;;;;;;;;;;;;;;;;;5089982;28;19916;-73
2022/02/21 04:12:21;;;;;;;;;;;;;;;;;;5084655;28;19920;-74
2022/02/21 04:14:47;;;;;;;;;;;;;;;;;;5081754;28;19931;-73
2022/02/21 04:17:13;;;;;;;;;;;;;;;;;;5089371;28;19956;-73
2022/02/21 04:19:39;;;;;;;;;;;;;;;;;;5090105;28;19920;-74
2022/02/21 04:22:09;;;;;;;;;;;;;;;;;;5089711;28;20283;-73
2022/02/21 04:24:34;;;;;;;;;;;;;;;;;;5081357;28;19968;-73
2022/02/21 04:26:59;;;;;;;;;;;;;;;;;;5079620;28;20353;-73
2022/02/21 04:29:25;;;;;;;;;;;;;;;;;;5090005;28;19923;-73
2022/02/21 04:31:50;;;;;;;;;;;;;;;;;;5089513;28;20007;-73
2022/02/21 04:34:15;;;;;;;;;;;;;;;;;;5088376;28;19931;-71
2022/02/21 04:36:41;;;;;;;;;;;;;;;;;;5089512;28;20249;-73
2022/02/21 04:39:06;;;;;;;;;;;;;;;;;;5088753;28;19927;-72
2022/02/21 04:41:31;;;;;;;;;;;;;;;;;;5089716;28;19916;-73
2022/02/21 04:43:57;;;;;;;;;;;;;;;;;;5089146;28;20387;-73
2022/02/21 04:46:22;;;;;;;;;;;;;;;;;;5081358;28;19931;-73
2022/02/21 04:48:48;;;;;;;;;;;;;;;;;;5081433;28;19924;-73
2022/02/21 04:51:13;;;;;;;;;;;;;;;;;;5081576;28;19973;-72
2022/02/21 04:53:39;;;;;;;;;;;;;;;;;;5089906;28;19963;-73
2022/02/21 04:56:04;;;;;;;;;;;;;;;;;;5087864;28;20395;-72
2022/02/21 04:58:30;;;;;;;;;;;;;;;;;;5089638;28;19920;-73
2022/02/21 05:00:55;;;;;;;;;;;;;;;;;;5074433;28;19924;-73
2022/02/21 05:03:20;;;;;;;;;;;;;;;;;;5074868;28;19962;-74
2022/02/21 05:05:46;;;;;;;;;;;;;;;;;;5089040;28;20210;-72
2022/02/21 05:08:11;;;;;;;;;;;;;;;;;;5074720;28;19972;-73
2022/02/21 05:10:36;;;;;;;;;;;;;;;;;;5080868;28;19920;-73
2022/02/21 05:13:02;;;;;;;;;;;;;;;;;;5084681;28;20248;-73
2022/02/21 05:15:27;;;;;;;;;;;;;;;;;;5089478;28;19927;-74
2022/02/21 05:17:53;;;;;;;;;;;;;;;;;;5089068;28;20360;-73
2022/02/21 05:20:18;;;;;;;;;;;;;;;;;;5089447;28;19923;-73
2022/02/21 05:22:45;;;;;;;;;;;;;;;;;;5088812;28;20224;-73
2022/02/21 05:25:10;;;;;;;;;;;;;;;;;;5088482;28;19920;-72
2022/02/21 05:27:39;;;;;;;;;;;;;;;;;;5080988;28;19923;-73
2022/02/21 05:30:06;;;;;;;;;;;;;;;;;;5074734;28;20019;-74
2022/02/21 05:32:32;;;;;;;;;;;;;;;;;;5079828;28;20376;-74
2022/02/21 05:34:57;;;;;;;;;;;;;;;;;;5088726;28;19916;-74
2022/02/21 05:37:23;;;;;;;;;;;;;;;;;;5089018;28;19915;-74
2022/02/21 05:39:48;;;;;;;;;;;;;;;;;;5075170;28;19924;-75
2022/02/21 05:42:14;;;;;;;;;;;;;;;;;;5087094;28;19923;-74
2022/02/21 05:44:39;;;;;;;;;;;;;;;;;;5075245;28;19928;-73
2022/02/21 05:47:05;;;;;;;;;;;;;;;;;;5085543;28;19916;-73
2022/02/21 05:49:30;;;;;;;;;;;;;;;;;;5075951;28;20368;-73
2022/02/21 05:51:56;;;;;;;;;;;;;;;;;;5086603;28;19927;-74
2022/02/21 05:54:21;;;;;;;;;;;;;;;;;;5079383;28;19920;-73
2022/02/21 05:56:47;;;;;;;;;;;;;;;;;;5090165;28;19916;-72
2022/02/21 05:59:12;;;;;;;;;;;;;;;;;;5079896;28;19986;-75
2022/02/21 06:01:38;;;;;;;;;;;;;;;;;;5086665;28;19924;-74
2022/02/21 06:04:03;;;;;;;;;;;;;;;;;;5089539;28;19920;-75
2022/02/21 06:06:28;;;;;;;;;;;;;;;;;;5092216;28;20411;-72
2022/02/21 06:08:54;;;;;;;;;;;;;;;;;;5076809;28;19998;-74
2022/02/21 06:11:19;;;;;;;;;;;;;;;;;;5091215;28;20345;-73
2022/02/21 06:13:45;;;;;;;;;;;;;;;;;;5090953;28;19920;-75
2022/02/21 06:16:10;;;;;;;;;;;;;;;;;;5100802;28;19923;-74
2022/02/21 06:18:35;;;;;;;;;;;;;;;;;;5092515;28;20015;-74
2022/02/21 06:21:01;;;;;;;;;;;;;;;;;;5083550;28;19923;-73
2022/02/21 06:23:26;;;;;;;;;;;;;;;;;;5091239;28;20037;-74
2022/02/21 06:25:52;;;;;;;;;;;;;;;;;;5083468;28;19916;-74
2022/02/21 06:28:17;;;;;;;;;;;;;;;;;;5088477;28;19916;-72
2022/02/21 06:30:43;;;;;;;;;;;;;;;;;;5086097;28;19916;-73
2022/02/21 06:33:09;;;;;;;;;;;;;;;;;;5085884;28;19920;-73
2022/02/21 06:35:35;;;;;;;;;;;;;;;;;;5083558;28;19947;-73
2022/02/21 06:38:00;;;;;;;;;;;;;;;;;;5083314;28;20034;-74
2022/02/21 06:40:26;;;;;;;;;;;;;;;;;;5090053;28;19924;-73
2022/02/21 06:42:55;;;;;;;;;;;;;;;;;;5083506;28;20450;-73
2022/02/21 06:45:20;;;;;;;;;;;;;;;;;;5079184;28;20329;-73
2022/02/21 06:47:46;;;;;;;;;;;;;;;;;;5084490;28;19920;-74
2022/02/21 06:50:11;;;;;;;;;;;;;;;;;;5105432;28;19948;-72
2022/02/21 06:52:37;;;;;;;;;;;;;;;;;;5089756;28;19916;-74
2022/02/21 06:55:03;;;;;;;;;;;;;;;;;;5090529;28;19963;-74
2022/02/21 06:57:29;;;;;;;;;;;;;;;;;;5049870;28;19930;-72
2022/02/21 06:59:54;;;;;;;;;;;;;;;;;;5060477;28;19917;-73
2022/02/21 07:02:20;;;;;;;;;;;;;;;;;;5059867;28;19935;-73
2022/02/21 07:04:45;;;;;;;;;;;;;;;;;;5059783;28;20043;-74
2022/02/21 07:07:10;;;;;;;;;;;;;;;;;;5059110;28;20292;-74
2022/02/21 07:09:36;;;;;;;;;;;;;;;;;;5054735;28;19927;-73
2022/02/21 07:12:01;;;;;;;;;;;;;;;;;;5056744;28;20012;-73
2022/02/21 07:14:27;;;;;;;;;;;;;;;;;;5058688;28;19924;-73
2022/02/21 07:16:53;;;;;;;;;;;;;;;;;;5051548;28;19952;-74
2022/02/21 07:19:18;;;;;;;;;;;;;;;;;;5036873;28;19944;-75
2022/02/21 07:21:44;;;;;;;;;;;;;;;;;;5052572;28;19917;-74
2022/02/21 07:24:10;;;;;;;;;;;;;;;;;;5051317;28;19932;-76
2022/02/21 07:26:35;;;;;;;;;;;;;;;;;;5051059;28;19948;-73
2022/02/21 07:29:00;;;;;;;;;;;;;;;;;;5050361;28;20015;-73
2022/02/21 07:31:26;;;;;;;;;;;;;;;;;;5057292;28;19947;-73
2022/02/21 07:33:51;;;;;;;;;;;;;;;;;;5053082;28;19984;-74
2022/02/21 07:36:17;;;;;;;;;;;;;;;;;;5050918;28;20285;-74
2022/02/21 07:38:42;;;;;;;;;;;;;;;;;;5047919;28;20007;-73
2022/02/21 07:41:08;;;;;;;;;;;;;;;;;;5038393;28;20161;-74
2022/02/21 07:43:34;;;;;;;;;;;;;;;;;;5072749;28;19924;-74
2022/02/21 07:45:59;;;;;;;;;;;;;;;;;;5072240;28;19924;-71
2022/02/21 07:48:25;;;;;;;;;;;;;;;;;;5073330;28;20393;-72
2022/02/21 07:50:54;;;;;;;;;;;;;;;;;;5053762;28;19919;-72
2022/02/21 07:53:19;;;;;;;;;;;;;;;;;;5052541;28;19967;-72
2022/02/21 07:55:46;;;;;;;;;;;;;;;;;;5055541;28;19963;-73
2022/02/21 07:58:13;;;;;;;;;;;;;;;;;;5071970;28;20043;-73
2022/02/21 08:00:38;;;;;;;;;;;;;;;;;;5070965;28;19924;-73
2022/02/21 08:03:04;;;;;;;;;;;;;;;;;;5061053;28;19927;-72
2022/02/21 08:05:29;;;;;;;;;;;;;;;;;;5063108;28;19995;-73
2022/02/21 08:07:55;;;;;;;;;;;;;;;;;;5069922;28;20023;-72
2022/02/21 08:10:20;;;;;;;;;;;;;;;;;;5055129;28;19924;-73
2022/02/21 08:12:45;;;;;;;;;;;;;;;;;;5057731;28;20884;-73
2022/02/21 08:15:11;;;;;;;;;;;;;;;;;;5054776;28;20013;-73
2022/02/21 08:17:41;;;;;;;;;;;;;;;;;;5067584;28;20735;-73
2022/02/21 08:20:06;;;;;;;;;;;;;;;;;;5031016;28;20316;-73
2022/02/21 08:22:32;;;;;;;;;;;;;;;;;;5053932;28;19952;-72
2022/02/21 08:24:57;;;;;;;;;;;;;;;;;;5069634;28;19924;-73
2022/02/21 08:27:22;;;;;;;;;;;;;;;;;;5057389;28;19927;-74
2022/02/21 08:29:48;;;;;;;;;;;;;;;;;;5054635;28;20137;-73
2022/02/21 08:32:13;;;;;;;;;;;;;;;;;;5062085;28;19917;-72
2022/02/21 08:34:40;;;;;;;;;;;;;;;;;;5056087;28;19928;-73
2022/02/21 08:37:06;;;;;;;;;;;;;;;;;;5050542;28;19996;-74
2022/02/21 08:39:32;;;;;;;;;;;;;;;;;;5049582;28;20013;-73
2022/02/21 08:41:57;;;;;;;;;;;;;;;;;;5049937;28;20426;-72
2022/02/21 08:44:25;;;;;;;;;;;;;;;;;;5054659;28;19921;-73
2022/02/21 08:46:50;;;;;;;;;;;;;;;;;;5061651;28;20272;-73
2022/02/21 08:49:15;;;;;;;;;;;;;;;;;;5052187;28;19917;-74
2022/02/21 08:51:41;;;;;;;;;;;;;;;;;;5055066;28;19920;-72
2022/02/21 08:54:09;;;;;;;;;;;;;;;;;;5052104;28;19924;-72
2022/02/21 08:56:34;;;;;;;;;;;;;;;;;;5051740;28;19956;-72
2022/02/21 08:59:00;;;;;;;;;;;;;;;;;;5026535;28;19932;-72
2022/02/21 09:01:26;;;;;;;;;;;;;;;;;;5053811;28;19965;-73
2022/02/21 09:03:51;;;;;;;;;;;;;;;;;;5053383;28;20251;-72
2022/02/21 09:06:16;;;;;;;;;;;;;;;;;;5047561;28;20310;-72
2022/02/21 09:08:42;;;;;;;;;;;;;;;;;;5043326;28;21026;-73
2022/02/21 09:11:08;;;;;;;;;;;;;;;;;;5050518;28;20033;-74
2022/02/21 09:13:34;;;;;;;;;;;;;;;;;;5052848;28;19928;-73
2022/02/21 09:16:00;;;;;;;;;;;;;;;;;;5054391;28;19920;-71
2022/02/21 09:18:25;;;;;;;;;;;;;;;;;;5047704;28;19924;-72
2022/02/21 09:20:52;;;;;;;;;;;;;;;;;;5049464;28;19997;-74
2022/02/21 09:23:18;;;;;;;;;;;;;;;;;;5056141;28;19986;-75
2022/02/21 09:25:43;;;;;;;;;;;;;;;;;;5055138;28;20445;-72
2022/02/21 09:28:09;;;;;;;;;;;;;;;;;;5051148;28;20011;-72
2022/02/21 09:30:35;;;;;;;;;;;;;;;;;;5055949;28;19923;-73
2022/02/21 09:33:01;;;;;;;;;;;;;;;;;;5062428;28;19917;-72
2022/02/21 09:35:26;;;;;;;;;;;;;;;;;;5049989;28;19921;-73
2022/02/21 09:37:52;;;;;;;;;;;;;;;;;;5049243;28;19992;-72
2022/02/21 09:40:17;;;;;;;;;;;;;;;;;;5062498;28;19963;-72
2022/02/21 09:42:44;;;;;;;;;;;;;;;;;;5055289;28;20576;-74
2022/02/21 09:45:09;;;;;;;;;;;;;;;;;;5055173;28;19993;-72
2022/02/21 09:47:34;;;;;;;;;;;;;;;;;;5052414;28;20242;-72
2022/02/21 09:50:00;;;;;;;;;;;;;;;;;;5051743;28;20332;-73
2022/02/21 09:52:26;;;;;;;;;;;;;;;;;;5078244;28;19922;-73
2022/02/21 09:54:59;;;;;;;;;;;;;;;;;;5053610;28;19928;-72
2022/02/21 09:57:24;;;;;;;;;;;;;;;;;;5057082;28;20334;-71
2022/02/21 09:59:50;;;;;;;;;;;;;;;;;;5051037;28;19920;-73
2022/02/21 10:02:29;;;;;;;;;;;;;;;;;;5057227;28;19924;-73
2022/02/21 10:05:15;;;;;;;;;;;;;;;;;;5059590;28;19938;-72
2022/02/21 10:07:41;;;;;;;;;;;;;;;;;;5052344;28;19969;-72
2022/02/21 10:10:08;;;;;;;;;;;;;;;;;;5045605;28;19916;-73
2022/02/21 10:12:45;;;;;;;;;;;;;;;;;;5054169;28;19921;-73
2022/02/21 10:15:20;;;;;;;;;;;;;;;;;;5069585;28;19924;-73
2022/02/21 10:17:50;;;;;;;;;;;;;;;;;;5071205;28;20255;-72
2022/02/21 10:20:16;;;;;;;;;;;;;;;;;;5068577;28;20637;-73
2022/02/21 10:22:59;;;;;;;;;;;;;;;;;;5069791;28;20399;-71
2022/02/21 10:25:25;;;;;;;;;;;;;;;;;;5054255;28;19982;-73
2022/02/21 10:27:50;;;;;;;;;;;;;;;;;;5071041;28;19920;-73
2022/02/21 10:30:19;;;;;;;;;;;;;;;;;;5052737;28;19929;-73
2022/02/21 10:32:47;;;;;;;;;;;;;;;;;;5037146;28;19974;-72
2022/02/21 10:35:16;;;;;;;;;;;;;;;;;;5055619;28;19924;-73
2022/02/21 10:37:42;;;;;;;;;;;;;;;;;;5054123;28;20001;-73
2022/02/21 10:40:11;;;;;;;;;;;;;;;;;;5070043;28;20014;-73
2022/02/21 10:42:37;;;;;;;;;;;;;;;;;;5052223;28;19923;-73
2022/02/21 10:45:11;;;;;;;;;;;;;;;;;;5063411;28;19924;-72
2022/02/21 10:47:36;;;;;;;;;;;;;;;;;;5054079;28;20656;-73
2022/02/21 10:50:04;;;;;;;;;;;;;;;;;;5068482;28;20421;-73
2022/02/21 10:52:37;;;;;;;;;;;;;;;;;;5052584;28;20410;-72
2022/02/21 10:55:05;;;;;;;;;;;;;;;;;;5069351;28;20434;-72
2022/02/21 10:57:38;;;;;;;;;;;;;;;;;;5038118;28;20051;-72
2022/02/21 11:00:04;;;;;;;;;;;;;;;;;;5065522;28;19959;-73
2022/02/21 11:02:30;;;;;;;;;;;;;;;;;;5072089;28;19946;-73
2022/02/21 11:04:57;;;;;;;;;;;;;;;;;;5074357;28;20292;-74
2022/02/21 11:07:22;;;;;;;;;;;;;;;;;;5056136;28;19941;-74
2022/02/21 11:09:48;;;;;;;;;;;;;;;;;;5068657;28;20478;-73
2022/02/21 11:12:14;;;;;;;;;;;;;;;;;;5070632;28;19950;-72
2022/02/21 11:14:40;;;;;;;;;;;;;;;;;;5053889;28;19924;-71
2022/02/21 11:17:06;;;;;;;;;;;;;;;;;;5068583;28;19920;-73
2022/02/21 11:19:32;;;;;;;;;;;;;;;;;;5050124;28;19928;-73
2022/02/21 11:21:59;;;;;;;;;;;;;;;;;;5054429;28;20026;-73
2022/02/21 11:24:26;;;;;;;;;;;;;;;;;;5052308;28;20061;-73
2022/02/21 11:27:06;;;;;;;;;;;;;;;;;;5055040;28;19924;-72
2022/02/21 11:29:44;;;;;;;;;;;;;;;;;;5039445;28;19928;-72
2022/02/21 11:32:20;;;;;;;;;;;;;;;;;;5029801;28;19997;-73
2022/02/21 11:34:46;;;;;;;;;;;;;;;;;;5054347;28;19924;-71
2022/02/21 11:37:25;;;;;;;;;;;;;;;;;;5067029;28;19950;-72
2022/02/21 11:39:58;;;;;;;;;;;;;;;;;;5045067;28;19935;-73
2022/02/21 11:42:27;;;;;;;;;;;;;;;;;;5069499;28;19946;-74
2022/02/21 11:44:53;;;;;;;;;;;;;;;;;;5052998;28;20997;-72
2022/02/21 11:47:47;;;;;;;;;;;;;;;;;;5065245;28;22606;-72
2022/02/21 11:50:24;;;;;;;;;;;;;;;;;;5057222;28;19920;-71
2022/02/21 11:52:51;;;;;;;;;;;;;;;;;;5068081;28;19931;-73
2022/02/21 11:55:41;;;;;;;;;;;;;;;;;;5056888;28;19931;-72
2022/02/21 11:58:15;;;;;;;;;;;;;;;;;;5043220;28;19916;-73
2022/02/21 12:00:45;;;;;;;;;;;;;;;;;;5053384;28;19970;-73
2022/02/21 12:03:14;;;;;;;;;;;;;;;;;;5074663;28;19924;-73
2022/02/21 12:05:40;;;;;;;;;;;;;;;;;;5055858;28;20405;-73
2022/02/21 12:08:36;;;;;;;;;;;;;;;;;;5069265;28;19932;-73
2022/02/21 12:11:02;;;;;;;;;;;;;;;;;;5074411;28;19916;-72
2022/02/21 12:13:54;;;;;;;;;;;;;;;;;;5073317;28;19920;-74
2022/02/21 12:16:20;;;;;;;;;;;;;;;;;;5072826;28;19924;-73
2022/02/21 12:19:01;;;;;;;;;;;;;;;;;;5063847;28;19931;-72
2022/02/21 12:21:30;;;;;;;;;;;;;;;;;;5056923;28;19920;-73
2022/02/21 12:24:12;;;;;;;;;;;;;;;;;;5069103;28;20023;-72
2022/02/21 12:26:41;;;;;;;;;;;;;;;;;;5051211;28;19920;-74
2022/02/21 12:29:10;;;;;;;;;;;;;;;;;;5067501;28;20049;-74
2022/02/21 12:31:37;;;;;;;;;;;;;;;;;;5064456;28;19981;-73
2022/02/21 12:34:04;;;;;;;;;;;;;;;;;;5052169;28;19966;-73
2022/02/21 12:36:34;;;;;;;;;;;;;;;;;;5053830;28;19924;-72
2022/02/21 12:39:00;;;;;;;;;;;;;;;;;;5053402;28;20465;-73
2022/02/21 12:41:30;;;;;;;;;;;;;;;;;;5067786;28;19916;-74
2022/02/21 12:44:00;;;;;;;;;;;;;;;;;;5072286;28;20005;-71
2022/02/21 12:46:30;;;;;;;;;;;;;;;;;;5069830;28;20014;-74
2022/02/21 12:48:56;;;;;;;;;;;;;;;;;;5050758;28;20329;-73
2022/02/21 12:51:23;;;;;;;;;;;;;;;;;;5054192;28;19924;-73
2022/02/21 12:54:02;;;;;;;;;;;;;;;;;;5051878;28;20311;-73
2022/02/21 12:56:30;;;;;;;;;;;;;;;;;;5050552;28;19971;-72
2022/02/21 12:58:56;;;;;;;;;;;;;;;;;;5047476;28;20023;-73
2022/02/21 13:01:26;;;;;;;;;;;;;;;;;;5053127;28;19958;-74
2022/02/21 13:03:52;;;;;;;;;;;;;;;;;;5056225;28;19932;-73
2022/02/21 13:06:18;;;;;;;;;;;;;;;;;;5075370;28;20388;-73
2022/02/21 13:08:43;;;;;;;;;;;;;;;;;;5078869;28;19950;-74
2022/02/21 13:11:08;;;;;;;;;;;;;;;;;;5060277;28;19975;-73
2022/02/21 13:13:44;;;;;;;;;;;;;;;;;;5053999;28;19924;-72
2022/02/21 13:16:09;;;;;;;;;;;;;;;;;;5074878;28;20080;-71
2022/02/21 13:19:07;;;;;;;;;;;;;;;;;;5053858;28;20325;-73
2022/02/21 13:21:32;;;;;;;;;;;;;;;;;;5039630;28;19964;-73
2022/02/21 13:23:58;;;;;;;;;;;;;;;;;;5074144;28;19928;-72
2022/02/21 13:26:24;;;;;;;;;;;;;;;;;;5058927;28;20237;-73
2022/02/21 13:28:49;;;;;;;;;;;;;;;;;;5057598;28;20428;-72
2022/02/21 13:31:15;;;;;;;;;;;;;;;;;;5073796;28;19924;-72
2022/02/21 13:33:41;;;;;;;;;;;;;;;;;;5058730;28;19928;-73
2022/02/21 13:36:07;;;;;;;;;;;;;;;;;;5079593;28;19928;-73
2022/02/21 13:38:33;;;;;;;;;;;;;;;;;;5049281;28;19928;-72
2022/02/21 13:40:59;;;;;;;;;;;;;;;;;;5051458;28;19955;-73
2022/02/21 13:43:24;;;;;;;;;;;;;;;;;;5073820;28;19924;-72
2022/02/21 13:45:50;;;;;;;;;;;;;;;;;;5060447;28;19981;-74
2022/02/21 13:48:18;;;;;;;;;;;;;;;;;;5048354;28;19931;-72
2022/02/21 13:50:47;;;;;;;;;;;;;;;;;;5070267;28;19924;-73
2022/02/21 13:53:12;;;;;;;;;;;;;;;;;;5053454;28;19924;-74
2022/02/21 13:55:38;;;;;;;;;;;;;;;;;;5053340;28;19924;-72
2022/02/21 13:58:09;;;;;;;;;;;;;;;;;;5073228;28;19924;-74
2022/02/21 14:00:35;;;;;;;;;;;;;;;;;;5074012;28;20046;-72
2022/02/21 14:03:01;;;;;;;;;;;;;;;;;;5073376;28;19920;-73
2022/02/21 14:05:26;;;;;;;;;;;;;;;;;;5038232;28;19924;-72
2022/02/21 14:07:52;;;;;;;;;;;;;;;;;;5055684;28;21323;-74
2022/02/21 14:10:21;;;;;;;;;;;;;;;;;;5067396;28;19969;-73
2022/02/21 14:13:00;;;;;;;;;;;;;;;;;;5055131;28;20043;-71
2022/02/21 14:15:25;;;;;;;;;;;;;;;;;;5067553;28;19916;-72
2022/02/21 14:17:51;;;;;;;;;;;;;;;;;;5046975;28;19927;-72
2022/02/21 14:20:17;;;;;;;;;;;;;;;;;;5065909;28;19917;-73
2022/02/21 14:22:42;;;;;;;;;;;;;;;;;;5082335;28;19937;-73
2022/02/21 14:25:07;;;;;;;;;;;;;;;;;;5079506;28;19932;-73
2022/02/21 14:27:34;;;;;;;;;;;;;;;;;;5082308;28;20015;-72
2022/02/21 14:30:00;;;;;;;;;;;;;;;;;;5081994;28;20030;-71
2022/02/21 14:32:26;;;;;;;;;;;;;;;;;;5059662;28;19920;-72
2022/02/21 14:34:51;;;;;;;;;;;;;;;;;;5080744;28;20384;-72
2022/02/21 14:37:17;;;;;;;;;;;;;;;;;;5080741;28;20011;-73
2022/02/21 14:39:42;;;;;;;;;;;;;;;;;;5059990;28;19928;-72
2022/02/21 14:42:07;;;;;;;;;;;;;;;;;;5063340;28;20272;-73
2022/02/21 14:44:33;;;;;;;;;;;;;;;;;;5064760;28;19931;-73
2022/02/21 14:46:58;;;;;;;;;;;;;;;;;;5088986;28;19989;-73
2022/02/21 14:49:24;;;;;;;;;;;;;;;;;;5086337;28;20389;-73
2022/02/21 14:51:49;;;;;;;;;;;;;;;;;;5067355;28;19925;-73
2022/02/21 14:54:15;;;;;;;;;;;;;;;;;;5084680;28;20386;-73
2022/02/21 14:56:40;;;;;;;;;;;;;;;;;;5082009;28;19920;-74
2022/02/21 14:59:06;;;;;;;;;;;;;;;;;;5082612;28;19941;-73
2022/02/21 15:01:32;;;;;;;;;;;;;;;;;;5083896;28;19916;-73
2022/02/21 15:03:58;;;;;;;;;;;;;;;;;;5065089;28;20300;-77
2022/02/21 15:06:24;;;;;;;;;;;;;;;;;;5056293;28;20313;-73
2022/02/21 15:08:50;;;;;;;;;;;;;;;;;;5077781;28;19932;-74
2022/02/21 15:11:15;;;;;;;;;;;;;;;;;;5066848;28;19927;-73
2022/02/21 15:13:41;;;;;;;;;;;;;;;;;;5081152;28;19924;-75
2022/02/21 15:16:06;;;;;;;;;;;;;;;;;;5085131;28;19920;-72
2022/02/21 15:18:32;;;;;;;;;;;;;;;;;;5075322;28;19989;-73
2022/02/21 15:20:57;;;;;;;;;;;;;;;;;;5059465;28;19920;-73
2022/02/21 15:23:23;;;;;;;;;;;;;;;;;;5075492;28;19931;-71
2022/02/21 15:25:49;;;;;;;;;;;;;;;;;;5065719;28;19923;-72
2022/02/21 15:28:15;;;;;;;;;;;;;;;;;;5063266;28;19924;-74
2022/02/21 15:30:40;;;;;;;;;;;;;;;;;;5062409;28;20299;-75
2022/02/21 15:33:06;;;;;;;;;;;;;;;;;;5065994;28;19916;-74
2022/02/21 15:35:35;;;;;;;;;;;;;;;;;;5079391;28;20391;-73
2022/02/21 15:38:00;;;;;;;;;;;;;;;;;;5056646;28;20312;-74
2022/02/21 15:40:27;;;;;;;;;;;;;;;;;;5081302;28;19970;-73
2022/02/21 15:42:53;;;;;;;;;;;;;;;;;;5079565;28;20019;-74
2022/02/21 15:45:18;;;;;;;;;;;;;;;;;;5044773;28;20447;-74
2022/02/21 15:47:44;;;;;;;;;;;;;;;;;;5066569;28;19919;-73
2022/02/21 15:50:09;;;;;;;;;;;;;;;;;;5084206;28;20027;-73
2022/02/21 15:52:36;;;;;;;;;;;;;;;;;;5055728;28;20007;-74
2022/02/21 15:55:02;;;;;;;;;;;;;;;;;;5077943;28;20332;-74
2022/02/21 15:57:27;;;;;;;;;;;;;;;;;;5081791;28;19941;-73
2022/02/21 15:59:53;;;;;;;;;;;;;;;;;;5081940;28;19915;-74
2022/02/21 16:02:18;;;;;;;;;;;;;;;;;;5078964;28;20379;-73
2022/02/21 16:04:46;;;;;;;;;;;;;;;;;;5055252;28;20373;-74
2022/02/21 16:07:11;;;;;;;;;;;;;;;;;;5084548;28;19996;-72
2022/02/21 16:09:38;;;;;;;;;;;;;;;;;;5061246;28;19924;-74
2022/02/21 16:12:03;;;;;;;;;;;;;;;;;;5082515;28;20318;-73
2022/02/21 16:14:29;;;;;;;;;;;;;;;;;;5076986;28;19923;-73
2022/02/21 16:16:54;;;;;;;;;;;;;;;;;;5064563;28;19966;-74
2022/02/21 16:19:20;;;;;;;;;;;;;;;;;;5086238;28;19920;-72
2022/02/21 16:21:45;;;;;;;;;;;;;;;;;;5065659;28;20060;-73
2022/02/21 16:24:11;;;;;;;;;;;;;;;;;;5076839;28;20428;-73
2022/02/21 16:26:37;;;;;;;;;;;;;;;;;;5084566;28;19924;-73
2022/02/21 16:29:03;;;;;;;;;;;;;;;;;;5060366;28;19924;-74
2022/02/21 16:31:28;;;;;;;;;;;;;;;;;;5081233;28;19920;-74
2022/02/21 16:33:53;;;;;;;;;;;;;;;;;;5081229;28;19926;-74
2022/02/21 16:36:19;;;;;;;;;;;;;;;;;;5055177;28;19920;-73
2022/02/21 16:38:45;;;;;;;;;;;;;;;;;;5086521;28;20294;-73
2022/02/21 16:41:10;;;;;;;;;;;;;;;;;;5061087;28;19981;-73
2022/02/21 16:43:35;;;;;;;;;;;;;;;;;;5083718;28;19923;-72
2022/02/21 16:46:01;;;;;;;;;;;;;;;;;;5080431;28;19916;-72